createdAt,value
2018-12-21T00:03:35.161Z,21.66
2018-12-21T00:08:37.627Z,21.59
2018-12-21T00:13:40.120Z,21.52
2018-12-21T00:18:42.580Z,21.48
2018-12-21T00:23:45.088Z,21.41
2018-12-21T00:28:47.556Z,21.43
2018-12-21T00:33:56.049Z,21.42
2018-12-21T00:39:04.149Z,21.44
2018-12-21T00:44:08.661Z,21.35
2018-12-21T00:49:11.122Z,21.32
2018-12-21T00:54:13.953Z,21.31
2018-12-21T00:59:16.540Z,21.35
2018-12-21T01:04:19.936Z,21.40
2018-12-21T01:09:22.558Z,21.31
2018-12-21T01:14:25.030Z,21.33
2018-12-21T01:19:28.069Z,21.27
2018-12-21T01:24:30.535Z,21.24
2018-12-21T01:29:33.005Z,21.25
2018-12-21T01:34:35.472Z,21.24
2018-12-21T01:39:37.944Z,21.21
2018-12-21T01:44:40.413Z,21.22
2018-12-21T01:49:42.885Z,21.17
2018-12-21T01:54:45.487Z,21.15
2018-12-21T01:59:47.964Z,21.16
2018-12-21T02:04:50.428Z,21.18
2018-12-21T02:09:53.136Z,21.13
2018-12-21T02:14:55.662Z,21.11
2018-12-21T02:19:58.159Z,21.06
2018-12-21T02:25:00.624Z,21.08
2018-12-21T02:30:03.608Z,21.06
2018-12-21T02:35:06.793Z,21.04
2018-12-21T02:40:09.294Z,21.09
2018-12-21T02:45:11.810Z,21.04
2018-12-21T02:50:14.343Z,21.09
2018-12-21T02:55:16.821Z,21.10
2018-12-21T03:00:19.283Z,21.02
2018-12-21T03:05:21.818Z,21.05
2018-12-21T03:10:24.276Z,21.08
2018-12-21T03:15:26.803Z,21.04
2018-12-21T03:20:29.301Z,20.95
2018-12-21T03:25:32.497Z,20.95
2018-12-21T03:30:34.997Z,20.93
2018-12-21T03:35:37.462Z,20.98
2018-12-21T03:40:39.981Z,20.94
2018-12-21T03:45:42.641Z,20.96
2018-12-21T03:50:45.116Z,21.01
2018-12-21T03:55:47.576Z,20.97
2018-12-21T04:00:50.079Z,20.94
2018-12-21T04:05:52.553Z,20.93
2018-12-21T04:10:55.044Z,20.98
2018-12-21T04:15:58.104Z,20.95
2018-12-21T04:21:00.569Z,20.93
2018-12-21T04:26:03.047Z,20.94
2018-12-21T04:31:05.532Z,20.87
2018-12-21T04:36:08.016Z,20.93
2018-12-21T04:41:10.480Z,20.88
2018-12-21T04:46:13.079Z,20.87
2018-12-21T04:51:15.604Z,20.91
2018-12-21T04:56:18.081Z,20.93
2018-12-21T05:01:20.568Z,20.89
2018-12-21T05:06:23.034Z,20.87
2018-12-21T05:11:25.496Z,20.89
2018-12-21T05:16:27.965Z,20.86
2018-12-21T05:21:30.426Z,20.88
2018-12-21T05:26:32.883Z,20.87
2018-12-21T05:31:35.353Z,20.87
2018-12-21T05:36:37.829Z,20.83
2018-12-21T05:41:40.464Z,20.85
2018-12-21T05:46:42.945Z,20.81
2018-12-21T05:51:45.483Z,20.80
2018-12-21T05:56:47.948Z,20.82
2018-12-21T06:01:50.717Z,20.85
2018-12-21T06:06:53.365Z,20.88
2018-12-21T06:11:55.832Z,20.84
2018-12-21T06:16:58.320Z,20.83
2018-12-21T06:22:00.878Z,20.83
2018-12-21T06:27:04.049Z,20.79
2018-12-21T06:32:06.717Z,20.81
2018-12-21T06:37:09.318Z,20.84
2018-12-21T06:42:11.905Z,20.82
2018-12-21T06:47:14.389Z,20.81
2018-12-21T06:52:16.994Z,20.80
2018-12-21T06:57:19.476Z,20.75
2018-12-21T07:02:22.186Z,20.80
2018-12-21T07:07:24.645Z,20.85
2018-12-21T07:12:27.133Z,20.85
2018-12-21T07:17:29.597Z,20.86
2018-12-21T07:22:32.094Z,20.83
2018-12-21T07:27:34.703Z,20.86
2018-12-21T07:32:37.170Z,20.85
2018-12-21T07:37:39.712Z,20.85
2018-12-21T07:42:42.195Z,20.86
2018-12-21T07:47:44.815Z,20.87
2018-12-21T07:52:47.285Z,20.87
2018-12-21T07:57:49.752Z,20.53
2018-12-21T08:02:52.212Z,19.23
2018-12-21T08:07:54.800Z,19.03
2018-12-21T08:12:57.256Z,19.85
2018-12-21T08:17:59.716Z,20.16
2018-12-21T08:23:02.356Z,20.28
2018-12-21T08:28:04.888Z,20.36
2018-12-21T08:33:07.423Z,20.39
2018-12-21T08:38:10.700Z,20.41
2018-12-21T08:43:13.170Z,20.45
2018-12-21T08:48:15.632Z,20.47
2018-12-21T08:53:18.412Z,20.46
2018-12-21T08:58:20.903Z,20.46
2018-12-21T09:03:23.416Z,20.48
2018-12-21T09:08:25.941Z,20.49
2018-12-21T09:13:28.603Z,20.49
2018-12-21T09:18:31.082Z,20.55
2018-12-21T09:23:33.961Z,20.54
2018-12-21T09:28:36.591Z,20.58
2018-12-21T09:33:39.120Z,20.61
2018-12-21T09:38:41.584Z,20.63
2018-12-21T09:43:44.052Z,20.66
2018-12-21T09:48:46.631Z,20.68
2018-12-21T09:53:49.109Z,20.70
2018-12-21T09:58:51.585Z,20.71
2018-12-21T10:03:54.239Z,20.74
2018-12-21T10:08:56.747Z,20.75
2018-12-21T10:14:00.001Z,20.75
2018-12-21T10:19:02.483Z,20.72
2018-12-21T10:24:04.984Z,20.70
2018-12-21T10:29:07.464Z,20.70
2018-12-21T10:34:10.016Z,20.73
2018-12-21T10:39:12.485Z,20.75
2018-12-21T10:44:14.953Z,20.77
2018-12-21T10:49:17.488Z,20.76
2018-12-21T10:54:26.842Z,20.79
2018-12-21T10:59:24.621Z,20.80
2018-12-21T11:04:27.152Z,20.80
2018-12-21T11:09:29.620Z,20.83
2018-12-21T11:14:32.613Z,20.83
2018-12-21T11:19:35.996Z,20.84
2018-12-21T11:24:38.545Z,20.87
2018-12-21T11:29:41.084Z,20.88
2018-12-21T11:34:43.548Z,20.88
2018-12-21T11:39:46.019Z,20.81
2018-12-21T11:44:48.488Z,20.72
2018-12-21T11:49:51.116Z,20.78
2018-12-21T11:54:53.732Z,20.82
2018-12-21T11:59:56.326Z,20.85
2018-12-21T12:04:58.797Z,20.87
2018-12-21T12:10:01.267Z,20.85
2018-12-21T12:15:05.365Z,20.87
2018-12-21T12:20:07.996Z,20.88
2018-12-21T12:25:10.460Z,20.87
2018-12-21T12:30:12.924Z,20.89
2018-12-21T12:35:15.420Z,20.89
2018-12-21T12:40:17.940Z,20.90
2018-12-21T12:45:20.415Z,20.89
2018-12-21T12:50:22.947Z,20.89
2018-12-21T12:55:25.621Z,20.90
2018-12-21T13:00:28.120Z,20.89
2018-12-21T13:05:30.589Z,20.95
2018-12-21T13:10:33.067Z,20.93
2018-12-21T13:15:36.285Z,20.93
2018-12-21T13:20:38.781Z,20.91
2018-12-21T13:25:41.263Z,20.90
2018-12-21T13:30:43.760Z,20.90
2018-12-21T13:35:46.764Z,20.89
2018-12-21T13:40:49.236Z,20.89
2018-12-21T13:45:51.708Z,20.89
2018-12-21T13:50:54.252Z,20.92
2018-12-21T13:55:56.747Z,20.96
2018-12-21T14:00:59.300Z,21.06
2018-12-21T14:06:01.835Z,21.04
2018-12-21T14:11:04.349Z,21.05
2018-12-21T14:16:06.867Z,21.05
2018-12-21T14:21:09.333Z,21.06
2018-12-21T14:26:11.819Z,21.05
2018-12-21T14:31:14.535Z,21.09
2018-12-21T14:36:16.998Z,21.10
2018-12-21T14:41:19.579Z,21.10
2018-12-21T14:46:22.205Z,21.07
2018-12-21T14:51:24.715Z,21.16
2018-12-21T14:56:27.352Z,21.21
2018-12-21T15:01:29.948Z,21.22
2018-12-21T15:06:32.445Z,21.23
2018-12-21T15:11:34.977Z,21.19
2018-12-21T15:16:37.485Z,21.19
2018-12-21T15:21:39.980Z,21.19
2018-12-21T15:26:42.457Z,21.15
2018-12-21T15:31:45.484Z,21.16
2018-12-21T15:36:48.399Z,21.16
2018-12-21T15:41:50.994Z,21.17
2018-12-21T15:46:53.564Z,21.22
2018-12-21T15:51:56.064Z,21.21
2018-12-21T15:56:58.557Z,21.22
2018-12-21T16:02:01.089Z,21.22
2018-12-21T16:07:03.609Z,21.24
2018-12-21T16:12:06.157Z,21.23
2018-12-21T16:17:08.893Z,21.20
2018-12-21T16:22:11.399Z,21.22
2018-12-21T16:27:14.517Z,21.26
2018-12-21T16:32:16.989Z,21.26
2018-12-21T16:37:19.486Z,21.25
2018-12-21T16:42:21.971Z,21.25
2018-12-21T16:47:24.845Z,21.27
2018-12-21T16:52:27.363Z,21.32
2018-12-21T16:57:29.824Z,21.34
2018-12-21T17:02:33.259Z,21.33
2018-12-21T17:07:35.755Z,21.29
2018-12-21T17:12:38.243Z,21.36
2018-12-21T17:17:40.733Z,21.38
2018-12-21T17:22:43.196Z,21.36
2018-12-21T17:27:46.141Z,21.32
2018-12-21T17:32:48.609Z,21.35
2018-12-21T17:37:51.082Z,21.30
2018-12-21T17:42:53.579Z,21.32
2018-12-21T17:47:56.064Z,21.32
2018-12-21T17:52:58.527Z,21.34
2018-12-21T17:58:01.011Z,21.27
2018-12-21T18:03:03.527Z,21.30
2018-12-21T18:08:06.676Z,21.27
2018-12-21T18:13:09.306Z,21.32
2018-12-21T18:18:12.036Z,21.29
2018-12-21T18:23:15.243Z,21.31
2018-12-21T18:28:22.289Z,21.31
2018-12-21T18:33:24.933Z,21.30
2018-12-21T18:38:27.448Z,21.31
2018-12-21T18:43:29.919Z,21.33
2018-12-21T18:48:32.540Z,21.34
2018-12-21T18:53:35.017Z,21.34
2018-12-21T18:58:37.480Z,21.38
2018-12-21T19:03:39.978Z,21.37
2018-12-21T19:08:42.441Z,21.41
2018-12-21T19:13:44.946Z,21.40
2018-12-21T19:18:47.412Z,21.44
2018-12-21T19:23:49.871Z,21.42
2018-12-21T19:28:52.363Z,21.36
2018-12-21T19:33:54.836Z,21.35
2018-12-21T19:38:57.301Z,21.29
2018-12-21T19:43:59.763Z,21.26
2018-12-21T19:49:02.256Z,21.22
2018-12-21T19:54:04.744Z,21.22
2018-12-21T19:59:07.216Z,21.22
2018-12-21T20:04:09.693Z,21.20
2018-12-21T20:09:12.211Z,21.17
2018-12-21T20:14:14.772Z,21.16
2018-12-21T20:19:17.293Z,21.18
2018-12-21T20:24:19.814Z,21.16
2018-12-21T20:29:22.293Z,21.13
2018-12-21T20:34:24.887Z,21.14
2018-12-21T20:39:27.729Z,21.13
2018-12-21T20:44:30.241Z,21.12
2018-12-21T20:49:32.708Z,21.10
2018-12-21T20:54:36.565Z,21.10
2018-12-21T20:59:39.479Z,21.12
2018-12-21T21:04:42.076Z,21.08
2018-12-21T21:09:44.652Z,21.08
2018-12-21T21:14:47.362Z,21.08
2018-12-21T21:19:50.218Z,21.06
2018-12-21T21:24:52.697Z,21.04
2018-12-21T21:29:55.340Z,21.05
2018-12-21T21:34:58.396Z,21.05
2018-12-21T21:40:02.382Z,21.05
2018-12-21T21:45:08.164Z,21.05
2018-12-21T21:50:10.652Z,21.01
2018-12-21T21:55:13.172Z,21.00
2018-12-21T22:00:15.732Z,21.01
2018-12-21T22:05:18.353Z,21.01
2018-12-21T22:10:20.848Z,21.04
2018-12-21T22:15:23.985Z,21.01
2018-12-21T22:20:26.484Z,20.98
2018-12-21T22:25:29.053Z,20.97
2018-12-21T22:30:31.701Z,21.01
2018-12-21T22:35:34.193Z,21.01
2018-12-21T22:40:36.689Z,21.03
2018-12-21T22:45:39.264Z,20.98
2018-12-21T22:50:41.959Z,20.97
2018-12-21T22:55:44.429Z,20.97
2018-12-21T23:00:47.221Z,21.03
2018-12-21T23:05:49.747Z,21.02
2018-12-21T23:10:52.837Z,21.02
2018-12-21T23:15:55.313Z,21.00
2018-12-21T23:20:57.892Z,21.01
2018-12-21T23:26:00.359Z,20.99
2018-12-21T23:31:02.820Z,20.98
2018-12-21T23:36:05.705Z,20.98
2018-12-21T23:41:08.176Z,21.01
2018-12-21T23:46:10.731Z,20.97
2018-12-21T23:51:13.309Z,20.97
2018-12-21T23:56:15.776Z,20.94
